Time;durP1;ratioP1;P1;durP2;ratioP2;P2;SDS_P1;SDS_P2;PMS_P1;PMS_P2;Temp;Humidity;BMP_temperature;BMP_pressure;BME280_temperature;BME280_humidity;BME280_pressure;Samples;Min_cycle;Max_cycle;Signal;HPM_P1;HPM_P2
2023/08/04 00:00:34;;;;;;;3.67;1.02;;;14.40;99.90;;;;;;4994150;28;20053;-70
2023/08/04 00:02:59;;;;;;;3.33;1.58;;;14.40;99.90;;;;;;4994211;28;20049;-70
2023/08/04 00:05:25;;;;;;;8.02;4.80;;;14.40;99.90;;;;;;4994130;28;20030;-70
2023/08/04 00:07:51;;;;;;;8.95;5.05;;;14.30;99.90;;;;;;4994261;28;20105;-70
2023/08/04 00:10:17;;;;;;;6.65;2.58;;;14.30;99.90;;;;;;4994050;28;20052;-70
2023/08/04 00:12:43;;;;;;;2.55;1.00;;;14.20;99.90;;;;;;4994195;28;20519;-70
2023/08/04 00:15:09;;;;;;;2.53;1.10;;;14.20;99.90;;;;;;4994052;28;20038;-70
2023/08/04 00:17:37;;;;;;;2.40;1.10;;;14.20;99.90;;;;;;4993878;28;20030;-69
2023/08/04 00:20:04;;;;;;;3.60;1.48;;;14.20;99.90;;;;;;4994175;28;20038;-70
2023/08/04 00:22:30;;;;;;;3.33;1.40;;;14.20;99.90;;;;;;4994052;28;20496;-70
2023/08/04 00:24:55;;;;;;;4.63;2.60;;;14.20;99.90;;;;;;4992738;28;20023;-70
2023/08/04 00:27:21;;;;;;;6.47;3.30;;;14.30;99.90;;;;;;4993851;28;20034;-70
2023/08/04 00:29:47;;;;;;;5.43;2.20;;;14.30;99.90;;;;;;4993887;28;20034;-70
2023/08/04 00:32:12;;;;;;;4.57;1.30;;;14.40;99.90;;;;;;4993795;28;20030;-70
2023/08/04 00:34:38;;;;;;;1.48;0.90;;;14.40;99.90;;;;;;4994135;28;20030;-70
2023/08/04 00:37:03;;;;;;;2.15;0.82;;;14.50;99.90;;;;;;4993791;28;20499;-70
2023/08/04 00:39:29;;;;;;;3.78;1.00;;;14.50;99.90;;;;;;4993711;28;20473;-70
2023/08/04 00:41:55;;;;;;;1.45;0.80;;;14.50;99.90;;;;;;4994052;28;20499;-70
2023/08/04 00:44:20;;;;;;;2.60;0.93;;;14.50;99.90;;;;;;4994006;28;20684;-70
2023/08/04 00:46:46;;;;;;;1.40;0.70;;;14.60;99.90;;;;;;4994019;28;20058;-70
2023/08/04 00:49:12;;;;;;;3.03;0.70;;;14.60;99.90;;;;;;4994294;28;20039;-70
2023/08/04 00:51:39;;;;;;;3.28;1.05;;;14.60;99.90;;;;;;4993627;28;20511;-70
2023/08/04 00:54:05;;;;;;;1.95;0.70;;;14.60;99.90;;;;;;4993817;28;20026;-70
2023/08/04 00:56:31;;;;;;;2.55;0.75;;;14.60;99.90;;;;;;4993648;28;20038;-70
2023/08/04 00:58:59;;;;;;;5.82;0.80;;;14.60;99.90;;;;;;4993467;28;20034;-71
2023/08/04 01:01:25;;;;;;;2.17;0.90;;;14.50;99.90;;;;;;4993611;28;20022;-70
2023/08/04 01:03:52;;;;;;;1.63;0.73;;;14.50;99.90;;;;;;4993611;28;20089;-70
2023/08/04 01:06:42;;;;;;;2.70;0.75;;;14.50;99.90;;;;;;4993619;28;20030;-70
2023/08/04 01:09:46;;;;;;;2.87;0.80;;;14.40;99.90;;;;;;4993557;28;20026;-70
2023/08/04 01:12:22;;;;;;;3.33;1.00;;;14.40;99.90;;;;;;4987827;28;20042;-70
2023/08/04 01:14:53;;;;;;;1.70;0.70;;;14.50;99.90;;;;;;4994073;28;20144;-70
2023/08/04 01:17:28;;;;;;;;;;;14.40;99.90;;;;;;4995702;28;20108;-71
2023/08/04 01:19:55;;;;;;;2.17;0.80;;;14.50;99.90;;;;;;4997096;28;19920;-71
2023/08/04 01:22:21;;;;;;;1.65;0.77;;;14.40;99.90;;;;;;4997365;28;20026;-70
2023/08/04 01:24:48;;;;;;;1.90;0.70;;;14.50;99.90;;;;;;4997316;28;20094;-70
2023/08/04 01:27:18;;;;;;;4.20;0.70;;;14.50;99.90;;;;;;4997008;28;20033;-70
2023/08/04 01:29:45;;;;;;;1.87;0.80;;;14.50;99.90;;;;;;4995789;28;20026;-70
2023/08/04 01:32:11;;;;;;;2.28;0.98;;;14.50;99.90;;;;;;4997434;28;20026;-70
2023/08/04 01:34:39;;;;;;;1.70;0.70;;;14.50;99.90;;;;;;4997185;28;20109;-70
2023/08/04 01:37:05;;;;;;;2.25;0.95;;;14.40;99.90;;;;;;4996983;28;20036;-70
2023/08/04 01:39:30;;;;;;;6.00;1.13;;;14.40;99.90;;;;;;4996655;28;20113;-70
2023/08/04 01:41:56;;;;;;;1.85;0.80;;;14.40;99.90;;;;;;4996712;28;20031;-70
2023/08/04 01:44:22;;;;;;;4.90;0.80;;;14.20;99.90;;;;;;4996695;28;20058;-69
2023/08/04 01:46:47;;;;;;;2.30;0.80;;;14.20;99.90;;;;;;4996694;28;20085;-69
2023/08/04 01:49:13;;;;;;;1.10;0.55;;;14.10;99.90;;;;;;4979202;28;20035;-70
2023/08/04 01:51:39;;;;;;;3.47;0.93;;;14.10;99.90;;;;;;4996519;28;20027;-70
2023/08/04 01:54:04;;;;;;;2.38;0.60;;;14.00;99.90;;;;;;4996680;28;20022;-70
2023/08/04 01:56:30;;;;;;;2.00;0.73;;;14.10;99.90;;;;;;4996450;28;20030;-70
2023/08/04 01:58:55;;;;;;;3.33;0.80;;;14.10;99.90;;;;;;4996596;28;20369;-70
2023/08/04 02:01:21;;;;;;;1.50;0.70;;;14.10;99.90;;;;;;4995170;28;20451;-70
2023/08/04 02:03:47;;;;;;;2.55;0.82;;;14.10;99.90;;;;;;4996596;28;20084;-70
2023/08/04 02:06:12;;;;;;;2.20;0.70;;;14.20;99.90;;;;;;4996869;28;20038;-70
2023/08/04 02:08:38;;;;;;;2.67;0.80;;;14.30;99.90;;;;;;4996506;28;20037;-70
2023/08/04 02:11:03;;;;;;;1.10;0.63;;;14.30;99.90;;;;;;4996191;28;20058;-70
2023/08/04 02:13:29;;;;;;;1.80;0.70;;;14.30;99.90;;;;;;4996190;28;20058;-70
2023/08/04 02:15:55;;;;;;;1.73;0.70;;;14.40;99.90;;;;;;4996146;28;20035;-70
2023/08/04 02:18:20;;;;;;;1.50;0.70;;;14.30;99.90;;;;;;4994810;28;20034;-70
2023/08/04 02:20:46;;;;;;;1.45;0.70;;;14.40;99.90;;;;;;4995963;28;20040;-70
2023/08/04 02:23:12;;;;;;;3.50;0.70;;;14.40;99.90;;;;;;4996073;28;20045;-70
2023/08/04 02:25:37;;;;;;;1.02;0.75;;;14.40;99.90;;;;;;4996179;28;20069;-70
2023/08/04 02:28:03;;;;;;;1.60;0.70;;;14.30;99.90;;;;;;4994031;28;20023;-70
2023/08/04 02:30:29;;;;;;;3.13;0.75;;;14.20;99.90;;;;;;4995661;28;20109;-70
2023/08/04 02:32:54;;;;;;;2.55;0.70;;;14.20;99.90;;;;;;4995806;28;20036;-70
2023/08/04 02:35:20;;;;;;;1.92;0.70;;;14.20;99.90;;;;;;4995732;28;20041;-70
2023/08/04 02:37:46;;;;;;;2.45;0.77;;;14.20;99.90;;;;;;4995663;28;20038;-70
2023/08/04 02:40:12;;;;;;;2.10;0.80;;;14.20;99.90;;;;;;4995676;28;20527;-70
2023/08/04 02:42:37;;;;;;;2.63;0.80;;;14.10;99.90;;;;;;4995913;28;20026;-70
2023/08/04 02:45:04;;;;;;;1.52;0.90;;;14.10;99.90;;;;;;4995655;28;20046;-70
2023/08/04 02:47:30;;;;;;;4.05;1.20;;;14.10;99.90;;;;;;4995542;28;20033;-70
2023/08/04 02:49:56;;;;;;;3.90;2.58;;;14.10;99.90;;;;;;4994342;28;20047;-70
2023/08/04 02:52:21;;;;;;;3.53;1.50;;;14.00;99.90;;;;;;4995487;28;20057;-70
2023/08/04 02:54:47;;;;;;;1.95;1.10;;;14.00;99.90;;;;;;4995422;28;20031;-70
2023/08/04 02:57:13;;;;;;;2.15;1.10;;;13.90;99.90;;;;;;4994026;28;20392;-70
2023/08/04 02:59:38;;;;;;;4.30;0.90;;;13.90;99.90;;;;;;4994048;28;20029;-70
2023/08/04 03:02:06;;;;;;;2.13;0.80;;;13.90;99.90;;;;;;4995195;28;20055;-70
2023/08/04 03:04:32;;;;;;;1.40;0.60;;;13.90;99.90;;;;;;4995230;28;20052;-70
2023/08/04 03:06:57;;;;;;;2.72;0.88;;;14.00;99.90;;;;;;4995184;28;20066;-70
2023/08/04 03:09:23;;;;;;;2.17;0.90;;;14.00;99.90;;;;;;4995628;28;20057;-70
2023/08/04 03:11:49;;;;;;;2.22;0.80;;;14.10;99.90;;;;;;4995351;28;20034;-70
2023/08/04 03:14:14;;;;;;;1.42;0.80;;;14.10;99.90;;;;;;4995271;28;20026;-70
2023/08/04 03:16:40;;;;;;;1.50;0.70;;;14.10;99.90;;;;;;4994948;28;20041;-70
2023/08/04 03:19:05;;;;;;;1.17;0.60;;;14.10;99.90;;;;;;4995650;28;20125;-70
2023/08/04 03:21:31;;;;;;;1.38;0.75;;;14.10;99.90;;;;;;4995701;28;20109;-70
2023/08/04 03:23:57;;;;;;;1.30;0.70;;;14.10;99.90;;;;;;4995901;28;20031;-69
2023/08/04 03:26:22;;;;;;;3.00;0.77;;;14.00;99.90;;;;;;4993615;28;20033;-70
2023/08/04 03:28:48;;;;;;;1.65;0.50;;;13.90;99.90;;;;;;4994835;28;20034;-69
2023/08/04 03:31:14;;;;;;;1.27;0.60;;;13.90;99.90;;;;;;4995199;28;20027;-70
2023/08/04 03:33:39;;;;;;;2.35;0.70;;;13.90;99.90;;;;;;4994759;28;20026;-69
2023/08/04 03:36:05;;;;;;;2.17;1.00;;;13.90;99.90;;;;;;4994650;28;20523;-69
2023/08/04 03:38:31;;;;;;;3.63;1.08;;;13.90;99.90;;;;;;4994490;28;20227;-69
2023/08/04 03:40:56;;;;;;;2.42;0.90;;;13.80;99.90;;;;;;4994199;28;20436;-70
2023/08/04 03:43:22;;;;;;;3.67;1.00;;;13.80;99.90;;;;;;4993308;28;20023;-70
2023/08/04 03:45:47;;;;;;;1.73;1.00;;;13.80;99.90;;;;;;4994769;28;20061;-70
2023/08/04 03:48:13;;;;;;;2.67;1.27;;;13.80;99.90;;;;;;4994309;28;20046;-69
2023/08/04 03:50:39;;;;;;;3.75;0.80;;;13.70;99.90;;;;;;4994315;28;20030;-69
2023/08/04 03:53:04;;;;;;;1.50;0.75;;;13.70;99.90;;;;;;4994260;28;20077;-70
2023/08/04 03:55:30;;;;;;;2.20;1.00;;;13.70;99.90;;;;;;4994180;28;20105;-70
2023/08/04 03:57:56;;;;;;;1.55;0.70;;;13.70;99.90;;;;;;4994068;28;20030;-70
2023/08/04 04:00:21;;;;;;;1.73;0.90;;;13.80;99.90;;;;;;4994042;28;20034;-70
2023/08/04 04:02:47;;;;;;;2.10;0.90;;;13.80;99.90;;;;;;4993458;28;20031;-70
2023/08/04 04:05:13;;;;;;;1.25;0.70;;;13.90;99.90;;;;;;5033476;28;20064;-69
2023/08/04 04:07:38;;;;;;;2.35;0.73;;;13.90;99.90;;;;;;5016215;28;20087;-70
2023/08/04 04:10:05;;;;;;;2.35;0.90;;;13.90;99.90;;;;;;5010910;28;20030;-70
2023/08/04 04:12:32;;;;;;;1.67;0.70;;;13.90;99.90;;;;;;5016388;28;20034;-69
2023/08/04 04:14:58;;;;;;;2.13;0.85;;;13.80;99.90;;;;;;5011316;28;20029;-70
2023/08/04 04:17:26;;;;;;;2.50;1.20;;;13.80;99.90;;;;;;5013655;28;20583;-70
2023/08/04 04:19:52;;;;;;;3.50;1.00;;;13.70;99.90;;;;;;5010699;28;20038;-70
2023/08/04 04:22:18;;;;;;;1.58;0.98;;;13.60;99.90;;;;;;5011422;28;20033;-70
2023/08/04 04:24:44;;;;;;;2.33;1.10;;;13.60;99.90;;;;;;5017071;28;20098;-70
2023/08/04 04:27:11;;;;;;;2.03;0.80;;;13.60;99.90;;;;;;5013401;28;20033;-70
2023/08/04 04:29:37;;;;;;;2.05;0.95;;;13.60;99.90;;;;;;5013334;28;20101;-69
2023/08/04 04:32:03;;;;;;;1.33;0.70;;;13.60;99.90;;;;;;5013333;28;20026;-70
2023/08/04 04:34:29;;;;;;;4.35;1.13;;;13.60;99.90;;;;;;5013350;28;20034;-70
2023/08/04 04:36:57;;;;;;;2.25;0.77;;;13.70;99.90;;;;;;5013210;28;20206;-70
2023/08/04 04:39:23;;;;;;;1.77;0.60;;;13.70;99.90;;;;;;5013166;28;20492;-69
2023/08/04 04:41:49;;;;;;;1.90;0.77;;;13.70;99.90;;;;;;5013026;28;20038;-70
2023/08/04 04:44:14;;;;;;;1.67;0.82;;;13.80;99.90;;;;;;5013331;28;20038;-70
2023/08/04 04:46:40;;;;;;;1.58;0.70;;;13.80;99.90;;;;;;5013655;28;20387;-70
2023/08/04 04:49:06;;;;;;;2.55;0.80;;;13.80;99.90;;;;;;5013540;28;20453;-70
2023/08/04 04:51:31;;;;;;;1.40;0.80;;;13.70;99.90;;;;;;5013543;28;20113;-70
2023/08/04 04:53:57;;;;;;;1.88;0.95;;;13.70;99.90;;;;;;5017223;28;20026;-70
2023/08/04 04:56:24;;;;;;;1.27;0.60;;;13.70;99.90;;;;;;5017484;28;20034;-70
2023/08/04 04:58:50;;;;;;;1.50;0.77;;;13.60;99.90;;;;;;5017100;28;20029;-70
2023/08/04 05:01:16;;;;;;;2.13;0.80;;;13.60;99.90;;;;;;5017133;28;20076;-70
2023/08/04 05:03:42;;;;;;;1.85;0.88;;;13.50;99.90;;;;;;5017082;28;20034;-70
2023/08/04 05:06:07;;;;;;;3.85;0.80;;;13.50;99.90;;;;;;5017126;28;20026;-70
2023/08/04 05:08:33;;;;;;;3.90;0.90;;;13.50;99.90;;;;;;5016913;28;20025;-70
2023/08/04 05:10:59;;;;;;;1.75;0.60;;;13.50;99.90;;;;;;5016985;28;20500;-70
2023/08/04 05:13:25;;;;;;;2.60;0.90;;;13.50;99.90;;;;;;5016883;28;20048;-70
2023/08/04 05:15:50;;;;;;;2.38;0.82;;;13.50;99.90;;;;;;5016918;28;20022;-70
2023/08/04 05:18:16;;;;;;;1.88;0.82;;;13.50;99.90;;;;;;5015339;28;20048;-70
2023/08/04 05:20:47;;;;;;;1.58;0.68;;;13.50;99.90;;;;;;5016807;28;20041;-70
2023/08/04 05:23:13;;;;;;;1.40;0.80;;;13.50;99.90;;;;;;5016720;28;20026;-70
2023/08/04 05:25:39;;;;;;;2.38;0.65;;;13.60;99.90;;;;;;5016749;28;20077;-70
2023/08/04 05:28:27;;;;;;;4.18;0.60;;;13.50;99.90;;;;;;5016588;28;20026;-70
2023/08/04 05:30:55;;;;;;;2.20;0.80;;;13.50;99.90;;;;;;5016846;28;20028;-70
2023/08/04 05:33:21;;;;;;;2.15;0.70;;;13.50;99.90;;;;;;5004264;28;20393;-70
2023/08/04 05:35:47;;;;;;;1.75;1.00;;;13.40;99.90;;;;;;4995540;28;20030;-70
2023/08/04 05:38:13;;;;;;;3.97;1.00;;;13.40;99.90;;;;;;4996710;28;20425;-70
2023/08/04 05:40:43;;;;;;;2.10;0.73;;;13.40;99.90;;;;;;4996731;28;20114;-70
2023/08/04 05:43:09;;;;;;;3.85;0.90;;;13.40;99.90;;;;;;4995536;28;20392;-69
2023/08/04 05:45:40;;;;;;;3.50;0.80;;;13.40;99.90;;;;;;4996772;28;20033;-69
2023/08/04 05:48:06;;;;;;;2.00;0.82;;;13.40;99.90;;;;;;4996937;28;20052;-70
2023/08/04 05:50:32;;;;;;;2.80;0.75;;;13.50;99.90;;;;;;4996690;28;20038;-70
2023/08/04 05:52:58;;;;;;;2.75;1.20;;;13.50;99.90;;;;;;4996643;28;20057;-70
2023/08/04 05:55:25;;;;;;;3.95;2.17;;;13.60;99.90;;;;;;4996550;28;20550;-70
2023/08/04 05:57:50;;;;;;;4.18;2.67;;;13.50;99.90;;;;;;4995312;28;20377;-70
2023/08/04 06:00:17;;;;;;;4.63;2.22;;;13.50;99.90;;;;;;4996383;28;20031;-70
2023/08/04 06:02:44;;;;;;;3.30;1.90;;;13.60;99.90;;;;;;4996231;28;20392;-70
2023/08/04 06:05:11;;;;;;;5.72;1.23;;;13.60;99.90;;;;;;4996417;28;20109;-70
2023/08/04 06:07:36;;;;;;;2.28;1.02;;;13.60;99.90;;;;;;4996784;28;20077;-70
2023/08/04 06:10:02;;;;;;;2.88;0.98;;;13.60;99.90;;;;;;4996314;28;20031;-70
2023/08/04 06:12:28;;;;;;;2.72;1.00;;;13.70;99.90;;;;;;4996503;28;20100;-70
2023/08/04 06:14:55;;;;;;;1.80;0.98;;;13.70;99.90;;;;;;4994655;28;20030;-70
2023/08/04 06:17:20;;;;;;;1.75;0.80;;;13.70;99.90;;;;;;4995870;28;20082;-70
2023/08/04 06:19:46;;;;;;;2.80;1.25;;;13.70;99.90;;;;;;4996348;28;20060;-70
2023/08/04 06:22:15;;;;;;;3.33;1.17;;;13.70;99.90;;;;;;4996342;28;20042;-70
2023/08/04 06:24:41;;;;;;;2.55;1.25;;;13.80;99.90;;;;;;4996425;28;20022;-70
2023/08/04 06:27:07;;;;;;;2.42;1.15;;;13.80;99.90;;;;;;4995992;28;20469;-70
2023/08/04 06:29:33;;;;;;;2.75;1.30;;;13.90;99.90;;;;;;4996271;28;20030;-70
2023/08/04 06:31:59;;;;;;;2.30;1.05;;;13.90;99.90;;;;;;4996146;28;20065;-70
2023/08/04 06:34:25;;;;;;;1.95;0.82;;;13.90;99.90;;;;;;4994598;28;20061;-70
2023/08/04 06:36:51;;;;;;;1.98;0.90;;;14.00;99.90;;;;;;4995778;28;20034;-70
2023/08/04 06:39:17;;;;;;;1.52;0.73;;;14.00;99.90;;;;;;4995634;28;20030;-70
2023/08/04 06:41:43;;;;;;;2.55;0.82;;;14.00;99.90;;;;;;4995733;28;20027;-70
2023/08/04 06:44:09;;;;;;;1.85;0.80;;;14.00;99.90;;;;;;4995923;28;20481;-70
2023/08/04 06:46:35;;;;;;;1.73;0.75;;;14.00;99.90;;;;;;4995731;28;20041;-70
2023/08/04 06:49:00;;;;;;;2.08;0.80;;;14.10;99.90;;;;;;4995618;28;20027;-71
2023/08/04 06:51:26;;;;;;;3.30;0.60;;;14.10;99.90;;;;;;4995470;28;20026;-70
2023/08/04 06:53:52;;;;;;;1.00;0.50;;;14.20;99.90;;;;;;4995501;28;20030;-70
2023/08/04 06:56:18;;;;;;;1.55;0.82;;;14.20;99.90;;;;;;4995452;28;20054;-70
2023/08/04 06:58:44;;;;;;;1.27;0.60;;;14.30;99.90;;;;;;4995357;28;20072;-70
2023/08/04 07:01:10;;;;;;;3.45;0.82;;;14.40;99.90;;;;;;4995617;28;20042;-70
2023/08/04 07:03:35;;;;;;;2.80;0.77;;;14.40;99.90;;;;;;4995337;28;20030;-70
2023/08/04 07:06:01;;;;;;;1.98;0.57;;;14.40;99.90;;;;;;4995295;28;20031;-70
2023/08/04 07:08:26;;;;;;;1.52;0.65;;;14.60;99.90;;;;;;4995201;28;20069;-70
2023/08/04 07:10:54;;;;;;;2.53;0.60;;;14.60;99.90;;;;;;4994961;28;20378;-70
2023/08/04 07:13:19;;;;;;;2.00;0.70;;;14.70;99.90;;;;;;4993918;28;20023;-70
2023/08/04 07:15:58;;;;;;;2.05;0.70;;;14.80;99.90;;;;;;4994494;28;20045;-70
2023/08/04 07:18:23;;;;;;;2.47;1.00;;;14.80;99.90;;;;;;4994929;28;20045;-70
2023/08/04 07:20:49;;;;;;;3.33;0.73;;;14.90;99.90;;;;;;4994892;28;20370;-71
2023/08/04 07:23:15;;;;;;;1.55;0.73;;;15.00;99.90;;;;;;4995060;28;20081;-70
2023/08/04 07:25:41;;;;;;;1.25;0.55;;;15.10;99.90;;;;;;4994875;28;20054;-70
2023/08/04 07:28:06;;;;;;;1.48;0.60;;;15.10;99.90;;;;;;4993556;28;20180;-70
2023/08/04 07:30:32;;;;;;;1.02;0.50;;;15.20;99.90;;;;;;4995227;28;20100;-70
2023/08/04 07:32:58;;;;;;;1.33;0.65;;;15.20;99.90;;;;;;4996253;28;20026;-70
2023/08/04 07:35:24;;;;;;;1.45;0.60;;;15.30;99.90;;;;;;4995029;28;20043;-70
2023/08/04 07:37:50;;;;;;;1.20;0.60;;;15.30;99.90;;;;;;4995026;28;20109;-70
2023/08/04 07:40:15;;;;;;;4.00;1.40;;;15.40;99.90;;;;;;4994548;28;20037;-70
2023/08/04 07:42:42;;;;;;;1.42;0.60;;;15.50;99.90;;;;;;4995116;28;20053;-70
2023/08/04 07:45:08;;;;;;;2.53;0.70;;;15.50;99.90;;;;;;4994471;28;20058;-71
2023/08/04 07:47:34;;;;;;;2.22;0.70;;;15.50;99.90;;;;;;4994381;28;20109;-71
2023/08/04 07:50:00;;;;;;;1.35;0.60;;;15.60;99.90;;;;;;4994671;28;20519;-71
2023/08/04 07:52:25;;;;;;;2.42;0.70;;;15.70;99.90;;;;;;4994458;28;20069;-71
2023/08/04 07:54:52;;;;;;;1.60;0.50;;;15.70;99.90;;;;;;4994587;28;20142;-71
2023/08/04 07:57:18;;;;;;;1.23;0.55;;;15.70;99.90;;;;;;5000883;28;20030;-71
2023/08/04 07:59:43;;;;;;;1.33;0.50;;;15.70;99.90;;;;;;5013799;28;20029;-71
2023/08/04 08:02:09;;;;;;;1.70;0.80;;;15.70;99.90;;;;;;5014168;28;20476;-71
2023/08/04 08:04:35;;;;;;;1.45;0.60;;;15.80;99.90;;;;;;5010382;28;20080;-71
2023/08/04 08:07:00;;;;;;;5.28;0.93;;;15.70;99.90;;;;;;5005323;28;20128;-71
2023/08/04 08:09:26;;;;;;;2.25;0.77;;;15.80;99.90;;;;;;4994284;28;20036;-71
2023/08/04 08:11:52;;;;;;;1.70;0.68;;;15.80;99.90;;;;;;5008507;28;20045;-71
2023/08/04 08:14:18;;;;;;;1.70;0.70;;;15.80;99.90;;;;;;4994052;28;20035;-71
2023/08/04 08:16:45;;;;;;;1.20;0.70;;;15.80;99.90;;;;;;4994548;28;20035;-71
2023/08/04 08:19:10;;;;;;;1.65;0.77;;;15.80;99.90;;;;;;4994239;28;20030;-72
2023/08/04 08:21:36;;;;;;;1.63;0.70;;;15.80;99.90;;;;;;4994556;28;20038;-72
2023/08/04 08:24:02;;;;;;;1.58;0.70;;;15.90;99.90;;;;;;4994289;28;20101;-72
2023/08/04 08:26:27;;;;;;;1.65;0.55;;;16.00;99.90;;;;;;4993222;28;20026;-72
2023/08/04 08:28:53;;;;;;;1.70;0.50;;;16.00;99.90;;;;;;5008876;28;20080;-72
2023/08/04 08:31:19;;;;;;;2.08;0.85;;;16.00;99.90;;;;;;5012270;28;20030;-72
2023/08/04 08:33:44;;;;;;;1.30;0.65;;;16.00;99.90;;;;;;5013527;28;20034;-72
2023/08/04 08:36:10;;;;;;;1.30;0.65;;;16.00;99.90;;;;;;5013514;28;20062;-72
2023/08/04 08:38:36;;;;;;;1.23;0.60;;;16.00;99.90;;;;;;5013561;28;20030;-72
2023/08/04 08:41:02;;;;;;;1.02;0.60;;;16.00;99.90;;;;;;5013397;28;20057;-72
2023/08/04 08:43:28;;;;;;;1.02;0.50;;;16.10;99.90;;;;;;5010112;28;20105;-73
2023/08/04 08:45:55;;;;;;;2.53;0.90;;;16.10;99.90;;;;;;4995078;28;20161;-72
2023/08/04 08:48:21;;;;;;;2.50;1.30;;;16.20;99.90;;;;;;4994074;28;20431;-72
2023/08/04 08:50:50;;;;;;;2.38;1.15;;;16.20;99.90;;;;;;4993703;28;20109;-73
2023/08/04 08:53:23;;;;;;;2.58;1.25;;;16.20;99.90;;;;;;5002618;28;20029;-73
2023/08/04 08:55:50;;;;;;;3.22;1.17;;;16.20;99.90;;;;;;5012963;28;20026;-73
2023/08/04 08:58:16;;;;;;;2.47;1.13;;;16.20;99.90;;;;;;5012043;28;20034;-73
2023/08/04 09:00:42;;;;;;;2.35;1.30;;;16.30;99.90;;;;;;5013275;28;20408;-73
2023/08/04 09:03:09;;;;;;;2.92;0.95;;;16.30;99.90;;;;;;5013403;28;20023;-73
2023/08/04 09:05:34;;;;;;;2.13;1.10;;;16.40;99.90;;;;;;5013277;28;20030;-73
2023/08/04 09:08:02;;;;;;;1.60;0.80;;;16.50;99.90;;;;;;5013867;28;20080;-73
2023/08/04 09:10:28;;;;;;;2.33;0.85;;;16.60;99.90;;;;;;5013596;28;20116;-73
2023/08/04 09:12:56;;;;;;;3.00;1.08;;;16.60;99.90;;;;;;5012378;28;20110;-73
2023/08/04 09:15:45;;;;;;;2.22;0.90;;;16.70;99.90;;;;;;4994919;28;20527;-73
2023/08/04 09:18:33;;;;;;;2.13;0.90;;;16.70;99.90;;;;;;4997431;28;20051;-73
2023/08/04 09:21:07;;;;;;;2.00;1.10;;;16.70;99.90;;;;;;4994640;28;20030;-73
2023/08/04 09:23:41;;;;;;;2.05;1.10;;;16.70;99.90;;;;;;4993057;28;20018;-73
2023/08/04 09:26:07;;;;;;;1.85;0.82;;;16.70;99.90;;;;;;4995414;28;20046;-73
2023/08/04 09:28:32;;;;;;;2.55;0.90;;;16.70;99.90;;;;;;4993817;28;20077;-73
2023/08/04 09:31:02;;;;;;;1.83;0.80;;;16.70;99.90;;;;;;4993798;28;20027;-73
2023/08/04 09:33:28;;;;;;;1.63;0.68;;;16.80;99.90;;;;;;4993479;28;20026;-73
2023/08/04 09:36:06;;;;;;;2.67;0.90;;;16.80;99.90;;;;;;4993446;28;20057;-73
2023/08/04 09:38:33;;;;;;;3.25;0.93;;;16.90;99.90;;;;;;4995007;28;20484;-73
2023/08/04 09:41:09;;;;;;;1.50;0.80;;;16.90;99.90;;;;;;4997284;28;20052;-73
2023/08/04 09:43:41;;;;;;;2.22;1.10;;;17.00;99.90;;;;;;4997121;28;20019;-73
2023/08/04 09:46:07;;;;;;;1.25;0.60;;;17.10;99.90;;;;;;4996895;28;20026;-73
2023/08/04 09:48:33;;;;;;;2.08;0.80;;;17.10;99.90;;;;;;4996626;28;20105;-73
2023/08/04 09:51:11;;;;;;;1.25;0.70;;;17.20;99.90;;;;;;4995408;28;20034;-73
2023/08/04 09:53:45;;;;;;;1.20;0.70;;;17.10;99.90;;;;;;4997010;28;20105;-73
2023/08/04 09:56:12;;;;;;;2.47;0.80;;;17.20;99.90;;;;;;4997030;28;20409;-73
2023/08/04 09:58:42;;;;;;;0.98;0.52;;;17.20;99.90;;;;;;5006313;28;20049;-74
2023/08/04 10:01:08;;;;;;;2.08;0.80;;;17.20;99.90;;;;;;5015448;28;20061;-73
2023/08/04 10:03:36;;;;;;;1.92;0.60;;;17.20;99.90;;;;;;5015517;28;20041;-74
2023/08/04 10:06:03;;;;;;;1.63;0.63;;;17.20;99.90;;;;;;5015443;28;20392;-73
2023/08/04 10:08:36;;;;;;;2.08;1.00;;;17.20;99.90;;;;;;5014406;28;20014;-74
2023/08/04 10:11:03;;;;;;;1.48;0.60;;;17.20;99.90;;;;;;4995896;28;20145;-73
2023/08/04 10:13:33;;;;;;;1.95;0.70;;;17.30;99.90;;;;;;4996260;28;20500;-74
2023/08/04 10:16:03;;;;;;;2.15;0.70;;;17.30;99.90;;;;;;5008486;28;20039;-73
2023/08/04 10:18:49;;;;;;;1.20;0.65;;;17.30;99.90;;;;;;5014508;28;20045;-74
2023/08/04 10:21:35;;;;;;;0.95;0.50;;;17.40;99.90;;;;;;5014763;28;20052;-74
2023/08/04 10:24:03;;;;;;;0.80;0.45;;;17.40;99.90;;;;;;5005253;28;20097;-73
2023/08/04 10:26:51;;;;;;;1.80;0.70;;;17.40;99.90;;;;;;5001341;28;20493;-73
2023/08/04 10:29:18;;;;;;;1.52;0.70;;;17.40;99.90;;;;;;5007214;28;20054;-73
2023/08/04 10:31:44;;;;;;;1.70;0.80;;;17.40;99.90;;;;;;5013017;28;20033;-74
2023/08/04 10:34:27;;;;;;;1.70;0.50;;;17.50;99.90;;;;;;5014816;28;20018;-74
2023/08/04 10:37:06;;;;;;;1.55;0.85;;;17.50;99.90;;;;;;5013052;28;20049;-74
2023/08/04 10:39:35;;;;;;;0.98;0.60;;;17.60;99.90;;;;;;5013307;28;20018;-74
2023/08/04 10:42:20;;;;;;;2.03;0.68;;;17.60;99.90;;;;;;5014595;28;20026;-74
2023/08/04 10:45:04;;;;;;;1.05;0.63;;;17.60;99.90;;;;;;5014347;28;20030;-74
2023/08/04 10:47:53;;;;;;;1.20;0.65;;;17.60;99.90;;;;;;4999404;28;20029;-74
2023/08/04 10:50:19;;;;;;;1.10;0.70;;;17.60;99.90;;;;;;5013069;28;20030;-73
2023/08/04 10:52:45;;;;;;;3.90;0.90;;;17.60;99.90;;;;;;5013669;28;20030;-74
2023/08/04 10:55:12;;;;;;;2.22;0.80;;;17.60;99.90;;;;;;5014259;28;20040;-74
2023/08/04 10:57:40;;;;;;;1.42;0.70;;;17.50;99.90;;;;;;5017332;28;20061;-74
2023/08/04 11:00:07;;;;;;;2.97;0.82;;;17.60;99.90;;;;;;5013065;28;20033;-73
2023/08/04 11:02:34;;;;;;;1.38;0.80;;;17.60;99.90;;;;;;5016133;28;20088;-74
2023/08/04 11:05:02;;;;;;;1.92;0.88;;;17.60;99.90;;;;;;5013017;28;20018;-73
2023/08/04 11:07:29;;;;;;;2.20;0.90;;;17.60;99.90;;;;;;5013926;28;20069;-74
2023/08/04 11:09:54;;;;;;;1.70;0.80;;;17.60;99.90;;;;;;5014234;28;20479;-74
2023/08/04 11:12:21;;;;;;;2.72;0.70;;;17.60;99.90;;;;;;5018424;28;20029;-74
2023/08/04 11:14:47;;;;;;;1.83;0.68;;;17.50;99.90;;;;;;5013822;28;20022;-74
2023/08/04 11:17:17;;;;;;;2.75;1.10;;;17.50;99.90;;;;;;5013786;28;20487;-74
2023/08/04 11:19:45;;;;;;;1.45;0.85;;;17.50;99.90;;;;;;5006336;28;20041;-74
2023/08/04 11:22:16;;;;;;;2.50;0.85;;;17.50;99.90;;;;;;5013520;28;20022;-74
2023/08/04 11:24:42;;;;;;;1.50;0.73;;;17.40;99.90;;;;;;5014409;28;20034;-74
2023/08/04 11:27:11;;;;;;;1.95;0.82;;;17.50;99.90;;;;;;5014251;28;20373;-74
2023/08/04 11:29:37;;;;;;;3.05;0.77;;;17.50;99.90;;;;;;5014262;28;20084;-74
2023/08/04 11:32:10;;;;;;;1.77;0.80;;;17.50;99.90;;;;;;5014398;28;20419;-74
2023/08/04 11:34:38;;;;;;;1.73;0.80;;;17.50;99.90;;;;;;5014369;28;20033;-74
2023/08/04 11:37:03;;;;;;;1.90;0.70;;;17.60;99.90;;;;;;5013171;28;20054;-74
2023/08/04 11:39:30;;;;;;;1.50;0.70;;;17.60;99.90;;;;;;5013725;28;20531;-74
2023/08/04 11:41:56;;;;;;;1.80;0.80;;;17.70;99.90;;;;;;5014501;28;20025;-74
2023/08/04 11:44:22;;;;;;;1.77;0.80;;;17.80;99.90;;;;;;5013248;28;20029;-74
2023/08/04 11:46:48;;;;;;;1.63;0.65;;;17.90;99.90;;;;;;5013920;28;20369;-74
2023/08/04 11:49:15;;;;;;;1.77;0.90;;;17.90;99.90;;;;;;5013656;28;20045;-73
2023/08/04 11:51:44;;;;;;;5.40;1.00;;;17.90;99.90;;;;;;5013936;28;20037;-74
2023/08/04 11:54:23;;;;;;;2.08;0.85;;;18.00;99.90;;;;;;5008388;28;20037;-74
2023/08/04 11:56:54;;;;;;;1.80;0.90;;;18.00;99.90;;;;;;5013666;28;20025;-74
2023/08/04 11:59:20;;;;;;;1.70;0.70;;;18.00;99.90;;;;;;5012377;28;20477;-74
2023/08/04 12:01:46;;;;;;;4.40;0.85;;;18.10;99.90;;;;;;5013527;28;20034;-74
2023/08/04 12:04:21;;;;;;;2.83;0.85;;;18.00;99.90;;;;;;5013614;28;20033;-74
2023/08/04 12:06:57;;;;;;;1.73;0.80;;;18.10;99.90;;;;;;5010209;28;20424;-74
2023/08/04 12:09:23;;;;;;;2.03;0.90;;;18.00;99.90;;;;;;5006795;28;20029;-74
2023/08/04 12:11:49;;;;;;;2.10;0.90;;;18.00;99.90;;;;;;5008423;28;20026;-75
2023/08/04 12:14:16;;;;;;;1.70;0.80;;;18.00;99.90;;;;;;5013242;28;20026;-74
2023/08/04 12:16:53;;;;;;;0.95;0.57;;;18.00;99.90;;;;;;5012008;28;20439;-74
2023/08/04 12:19:20;;;;;;;1.60;0.80;;;18.00;99.90;;;;;;5007599;28;20499;-74
2023/08/04 12:21:47;;;;;;;1.52;0.70;;;18.00;99.90;;;;;;5012148;28;20029;-74
2023/08/04 12:24:13;;;;;;;1.98;0.70;;;18.00;99.90;;;;;;5008902;28;20026;-74
2023/08/04 12:26:41;;;;;;;1.30;0.70;;;18.00;99.90;;;;;;5006798;28;20103;-74
2023/08/04 12:29:07;;;;;;;1.65;0.55;;;18.10;99.90;;;;;;5012011;28;20488;-75
2023/08/04 12:31:32;;;;;;;2.22;0.80;;;18.10;99.90;;;;;;5012143;28;20050;-74
2023/08/04 12:33:58;;;;;;;2.08;0.85;;;18.20;99.90;;;;;;5012221;28;20029;-74
2023/08/04 12:36:24;;;;;;;1.77;0.82;;;18.20;99.90;;;;;;4995678;28;20026;-74
2023/08/04 12:38:49;;;;;;;2.08;1.00;;;18.20;99.90;;;;;;5013259;28;20028;-74
2023/08/04 12:41:15;;;;;;;1.58;0.80;;;18.20;99.90;;;;;;5012805;28;20104;-75
2023/08/04 12:43:41;;;;;;;2.08;0.90;;;18.20;99.90;;;;;;4998993;28;20391;-75
2023/08/04 12:46:06;;;;;;;1.77;0.70;;;18.20;99.90;;;;;;5014450;28;20026;-75
2023/08/04 12:48:32;;;;;;;1.33;0.60;;;18.20;99.90;;;;;;5013074;28;20026;-76